Time;durP1;ratioP1;P1;durP2;ratioP2;P2;SDS_P1;SDS_P2;PMS_P1;PMS_P2;Temp;Humidity;BMP_temperature;BMP_pressure;BME280_temperature;BME280_humidity;BME280_pressure;Samples;Min_cycle;Max_cycle;Signal;HPM_P1;HPM_P2
2023/10/25 00:02:11;;;;;;;14.20;8.95;;;;;;;9.56;100.00;97823.47;5030269;28;20079;-53
2023/10/25 00:04:36;;;;;;;10.93;7.93;;;;;;;9.54;100.00;97830.97;5031479;28;20800;-53
2023/10/25 00:07:02;;;;;;;14.63;9.60;;;;;;;9.55;100.00;97819.94;5032932;28;20033;-53
2023/10/25 00:09:27;;;;;;;11.95;7.88;;;;;;;9.42;100.00;97826.28;5045620;22;20056;-62
2023/10/25 00:11:54;;;;;;;12.95;8.85;;;;;;;9.37;100.00;97834.19;5017202;28;20025;-62
2023/10/25 00:14:19;;;;;;;13.23;9.07;;;;;;;9.35;100.00;97830.91;5018655;28;20514;-63
2023/10/25 00:16:45;;;;;;;12.10;8.05;;;;;;;9.32;100.00;97834.03;5026014;28;20038;-63
2023/10/25 00:19:10;;;;;;;13.55;8.63;;;;;;;9.36;100.00;97832.56;5019107;28;20059;-62
2023/10/25 00:21:35;;;;;;;16.65;8.43;;;;;;;9.36;100.00;97832.56;5028759;28;20017;-60
2023/10/25 00:24:01;;;;;;;12.93;8.68;;;;;;;9.32;100.00;97830.50;5031793;28;20472;-63
2023/10/25 00:26:26;;;;;;;15.38;9.50;;;;;;;9.28;100.00;97824.72;5017946;28;20030;-62
2023/10/25 00:28:52;;;;;;;14.57;9.35;;;;;;;9.31;100.00;97818.06;5030432;28;20024;-63
2023/10/25 00:31:17;;;;;;;13.52;8.95;;;;;;;9.37;100.00;97820.69;5022530;28;20079;-61
2023/10/25 00:33:43;;;;;;;15.73;8.35;;;;;;;9.34;100.00;97804.94;5016371;28;20029;-61
2023/10/25 00:36:08;;;;;;;15.63;8.90;;;;;;;9.35;100.00;97809.31;5028805;28;20033;-62
2023/10/25 00:38:34;;;;;;;12.05;7.65;;;;;;;9.34;100.00;97807.66;5032857;28;20033;-60
2023/10/25 00:40:59;;;;;;;11.63;8.18;;;;;;;9.32;100.00;97814.31;5021204;28;20036;-60
2023/10/25 00:43:25;;;;;;;12.02;8.45;;;;;;;9.38;100.00;97813.47;5024363;28;20083;-60
2023/10/25 00:46:05;;;;;;;13.10;8.48;;;;;;;9.33;100.00;97816.00;5024429;28;20108;-62
2023/10/25 00:48:31;;;;;;;12.10;8.50;;;;;;;9.31;100.00;97815.38;5027559;28;20044;-62
2023/10/25 00:50:58;;;;;;;13.73;8.90;;;;;;;9.31;100.00;97813.50;5024772;28;20025;-60
2023/10/25 00:53:25;;;;;;;15.07;9.57;;;;;;;9.23;100.00;97812.94;5025112;28;20486;-62
2023/10/25 00:55:54;;;;;;;14.93;8.45;;;;;;;9.20;100.00;97811.50;5029428;28;20428;-62
2023/10/25 00:58:19;;;;;;;12.52;8.25;;;;;;;9.15;100.00;97805.94;5020580;28;20025;-62
2023/10/25 01:00:47;;;;;;;13.63;8.23;;;;;;;9.08;100.00;97805.97;5021675;28;20108;-60
2023/10/25 01:03:15;;;;;;;11.75;7.63;;;;;;;9.08;100.00;97803.28;5027864;28;20079;-60
2023/10/25 01:05:43;;;;;;;13.87;7.53;;;;;;;9.03;100.00;97807.69;5015842;28;20021;-60
2023/10/25 01:08:08;;;;;;;21.25;10.80;;;;;;;9.02;100.00;97806.84;5014822;28;20033;-62
2023/10/25 01:10:35;;;;;;;33.08;11.20;;;;;;;9.00;100.00;97812.47;5024147;28;20108;-62
2023/10/25 01:13:01;;;;;;;21.40;9.43;;;;;;;8.97;100.00;97806.69;5022221;28;20556;-61
2023/10/25 01:15:27;;;;;;;17.52;9.43;;;;;;;8.95;100.00;97812.28;5024687;28;20036;-61
2023/10/25 01:17:52;;;;;;;16.35;9.63;;;;;;;8.99;100.00;97810.81;5015667;28;20028;-62
2023/10/25 01:20:19;;;;;;;14.13;9.18;;;;;;;8.93;100.00;97798.22;5019734;28;20040;-62
2023/10/25 01:22:48;;;;;;;19.73;9.85;;;;;;;8.89;100.00;97793.47;5018370;28;20029;-62
2023/10/25 01:25:14;;;;;;;18.90;8.43;;;;;;;8.82;100.00;97795.38;5034418;28;20598;-62
2023/10/25 01:27:39;;;;;;;9.93;6.93;;;;;;;8.73;100.00;97794.81;5031674;28;20131;-62
2023/10/25 01:30:05;;;;;;;9.68;7.15;;;;;;;8.71;100.00;97800.41;5027895;28;20029;-62
2023/10/25 01:32:30;;;;;;;12.02;7.53;;;;;;;8.62;100.00;97793.63;5016294;28;20132;-62
2023/10/25 01:34:56;;;;;;;9.68;6.80;;;;;;;8.62;100.00;97798.16;5028933;28;20112;-62
2023/10/25 01:37:21;;;;;;;50.05;9.68;;;;;;;8.55;100.00;97792.81;5026904;28;20033;-62
2023/10/25 01:39:46;;;;;;;12.75;8.27;;;;;;;8.47;100.00;97784.97;5021512;28;20033;-62
2023/10/25 01:42:12;;;;;;;12.57;8.75;;;;;;;8.48;100.00;97787.44;5028528;28;20037;-62
2023/10/25 01:44:38;;;;;;;16.17;9.45;;;;;;;8.56;100.00;97789.88;5028586;28;20598;-62
2023/10/25 01:47:04;;;;;;;48.53;9.75;;;;;;;8.42;100.00;97782.94;5049967;23;20104;-77
2023/10/25 01:49:30;;;;;;;104.13;10.27;;;;;;;8.36;100.00;97789.16;5020601;28;20034;-77
2023/10/25 01:51:57;;;;;;;129.07;11.98;;;;;;;8.15;100.00;97776.81;5008175;28;20057;-77
2023/10/25 01:54:22;;;;;;;90.60;10.82;;;;;;;8.22;100.00;97784.84;5008297;28;20201;-77
2023/10/25 01:56:48;;;;;;;72.95;9.38;;;;;;;8.12;100.00;97783.44;4998737;28;20022;-76
2023/10/25 01:59:13;;;;;;;85.63;10.52;;;;;;;8.17;100.00;97798.13;5006232;28;20096;-77
2023/10/25 02:01:38;;;;;;;27.05;8.82;;;;;;;8.14;100.00;97793.97;5002947;28;20093;-77
2023/10/25 02:04:04;;;;;;;34.45;9.38;;;;;;;8.14;100.00;97799.38;4995931;28;20033;-77
2023/10/25 02:06:30;;;;;;;19.00;7.43;;;;;;;8.01;100.00;97797.53;5006264;28;20090;-77
2023/10/25 02:08:55;;;;;;;33.53;9.13;;;;;;;8.01;100.00;97797.53;5003798;28;20247;-77
2023/10/25 02:11:21;;;;;;;114.82;12.50;;;;;;;7.99;100.00;97801.47;5018567;28;20022;-77
2023/10/25 02:13:46;;;;;;;77.93;11.07;;;;;;;8.00;100.00;97806.69;5003975;28;20030;-76
2023/10/25 02:16:16;;;;;;;18.85;8.20;;;;;;;8.08;100.00;97809.13;4999105;28;20234;-76
2023/10/25 02:18:42;;;;;;;18.33;8.57;;;;;;;8.10;100.00;97795.47;5001368;28;20026;-76
2023/10/25 02:21:08;;;;;;;20.60;8.95;;;;;;;8.07;100.00;97796.72;5005625;28;20029;-76
2023/10/25 02:23:33;;;;;;;30.85;8.95;;;;;;;8.15;100.00;97786.72;5004231;28;20101;-76
2023/10/25 02:25:59;;;;;;;16.55;9.90;;;;;;;8.16;100.00;97783.00;5003296;28;20033;-77
2023/10/25 02:28:24;;;;;;;20.98;9.93;;;;;;;8.16;100.00;97788.41;5005561;28;20045;-76
2023/10/25 02:30:49;;;;;;;25.35;12.48;;;;;;;8.21;100.00;97781.31;5005014;28;20267;-76
2023/10/25 02:33:15;;;;;;;22.38;12.43;;;;;;;8.29;100.00;97780.25;5004142;28;20026;-75
2023/10/25 02:35:40;;;;;;;23.13;12.75;;;;;;;8.40;100.00;97789.56;4994284;28;20038;-76
2023/10/25 02:38:05;;;;;;;21.75;12.55;;;;;;;8.35;100.00;97765.91;5004199;28;20030;-76
2023/10/25 02:40:30;;;;;;;24.50;11.50;;;;;;;8.34;100.00;97777.75;5010791;28;20029;-76
2023/10/25 02:42:56;;;;;;;83.22;12.90;;;;;;;8.26;100.00;97778.00;5023724;28;20028;-77
2023/10/25 02:45:21;;;;;;;26.40;12.02;;;;;;;8.20;100.00;97777.00;5005928;28;21995;-76
2023/10/25 02:47:46;;;;;;;27.67;12.13;;;;;;;8.09;100.00;97770.38;5003979;28;20022;-76
2023/10/25 02:50:12;;;;;;;23.30;10.30;;;;;;;8.09;100.00;97772.25;5007525;28;20026;-77
2023/10/25 02:52:37;;;;;;;21.25;10.77;;;;;;;8.04;100.00;97770.22;5005905;28;20030;-77
2023/10/25 02:55:02;;;;;;;20.25;11.32;;;;;;;8.14;100.00;97764.34;5005258;28;20060;-76
2023/10/25 02:57:28;;;;;;;19.80;11.52;;;;;;;8.17;100.00;97755.00;5000037;28;20030;-76
2023/10/25 02:59:53;;;;;;;19.80;11.52;;;;;;;8.24;100.00;97755.81;5004043;28;20033;-77
2023/10/25 03:02:19;;;;;;;23.88;12.02;;;;;;;8.27;100.00;97750.81;5001606;28;20045;-76
2023/10/25 03:04:44;;;;;;;23.63;12.38;;;;;;;8.22;100.00;97747.13;5004688;28;20022;-76
2023/10/25 03:07:09;;;;;;;21.38;11.57;;;;;;;8.22;100.00;97761.41;5005342;28;20072;-76
2023/10/25 03:09:35;;;;;;;20.50;11.43;;;;;;;8.18;100.00;97757.50;5004274;28;20032;-76
2023/10/25 03:12:00;;;;;;;19.20;10.65;;;;;;;8.12;100.00;97743.03;5002738;28;20339;-74
2023/10/25 03:14:25;;;;;;;19.88;11.20;;;;;;;8.11;100.00;97749.44;5003857;28;20038;-73
2023/10/25 03:16:51;;;;;;;20.00;11.05;;;;;;;8.07;100.00;97744.72;4999460;28;20133;-74
2023/10/25 03:19:16;;;;;;;18.08;9.90;;;;;;;7.95;100.00;97730.25;5009995;28;20238;-74
2023/10/25 03:21:42;;;;;;;22.10;10.05;;;;;;;7.99;100.00;97740.38;5005143;28;20022;-74
2023/10/25 03:24:07;;;;;;;17.88;10.02;;;;;;;8.01;100.00;97740.97;5002703;28;20259;-75
2023/10/25 03:26:33;;;;;;;20.63;10.00;;;;;;;8.05;100.00;97736.84;5011515;28;20022;-75
2023/10/25 03:28:58;;;;;;;17.63;9.98;;;;;;;8.10;100.00;97726.25;5003926;28;20037;-75
2023/10/25 03:31:23;;;;;;;19.80;10.65;;;;;;;7.99;100.00;97712.59;4999818;28;20019;-74
2023/10/25 03:33:49;;;;;;;17.15;10.32;;;;;;;8.02;100.00;97704.94;5003199;28;20042;-75
2023/10/25 03:36:14;;;;;;;19.13;10.38;;;;;;;8.15;100.00;97713.97;5005146;28;20029;-74
2023/10/25 03:38:40;;;;;;;24.27;11.38;;;;;;;8.14;100.00;97715.84;5004994;28;20018;-75
2023/10/25 03:41:07;;;;;;;27.27;11.77;;;;;;;8.12;100.00;97712.53;5002306;28;20022;-75
2023/10/25 03:43:33;;;;;;;23.55;11.80;;;;;;;8.17;100.00;97726.19;5003518;28;20033;-75
2023/10/25 03:46:05;;;;;;;23.92;11.55;;;;;;;8.11;100.00;97727.88;5002153;28;20090;-75
2023/10/25 03:48:32;;;;;;;25.15;12.23;;;;;;;8.11;100.00;97722.50;4998247;28;20058;-74
2023/10/25 03:50:57;;;;;;;21.98;10.35;;;;;;;8.07;100.00;97715.91;5010051;28;20026;-74
2023/10/25 03:53:22;;;;;;;18.30;10.25;;;;;;;8.00;100.00;97714.28;5003399;28;20048;-74
2023/10/25 03:55:55;;;;;;;17.75;9.68;;;;;;;7.96;100.00;97715.72;5004021;28;20097;-74
2023/10/25 03:58:24;;;;;;;16.40;8.85;;;;;;;7.76;100.00;97697.78;4991452;28;20037;-75
2023/10/25 04:01:16;;;;;;;21.70;9.80;;;;;;;7.90;100.00;97709.34;5004502;28;20123;-77
2023/10/25 04:03:41;;;;;;;18.77;10.15;;;;;;;8.16;100.00;97686.03;5001673;28;20097;-76
2023/10/25 04:06:07;;;;;;;20.73;10.60;;;;;;;8.29;100.00;97699.41;5005663;28;20049;-75
2023/10/25 04:08:33;;;;;;;21.55;10.50;;;;;;;8.30;100.00;97685.72;4999285;28;20098;-76
2023/10/25 04:10:59;;;;;;;23.58;10.63;;;;;;;8.40;100.00;97684.47;4999555;28;20288;-75
2023/10/25 04:13:25;;;;;;;21.85;11.25;;;;;;;8.55;100.00;97691.19;4986999;28;20049;-75
2023/10/25 04:15:54;;;;;;;16.80;9.88;;;;;;;8.29;100.00;97691.34;5003487;28;20247;-76
2023/10/25 04:18:20;;;;;;;16.17;9.18;;;;;;;8.10;100.00;97677.75;5003071;28;20038;-74
2023/10/25 04:20:45;;;;;;;16.77;9.35;;;;;;;8.07;100.00;97688.97;5003451;28;20079;-74
2023/10/25 04:23:10;;;;;;;15.73;9.60;;;;;;;7.98;100.00;97694.81;4991633;28;20227;-74
2023/10/25 04:25:35;;;;;;;18.20;9.80;;;;;;;7.85;100.00;97674.97;5007471;28;20030;-74
2023/10/25 04:28:01;;;;;;;20.08;9.13;;;;;;;7.89;100.00;97681.59;5004816;28;20138;-75
2023/10/25 04:30:26;;;;;;;16.08;9.00;;;;;;;7.92;100.00;97671.44;4999295;28;20026;-76
2023/10/25 04:32:51;;;;;;;16.13;9.02;;;;;;;7.87;100.00;97689.03;5001222;28;20026;-74
2023/10/25 04:35:17;;;;;;;15.57;9.15;;;;;;;7.85;100.00;97663.38;5006106;28;20022;-75
2023/10/25 04:37:42;;;;;;;15.68;8.77;;;;;;;8.05;100.00;97672.19;5003447;28;20344;-74
2023/10/25 04:40:08;;;;;;;19.13;9.52;;;;;;;8.05;100.00;97658.72;5004081;28;20032;-77
2023/10/25 04:42:34;;;;;;;22.33;10.30;;;;;;;8.19;100.00;97670.25;5002828;28;20086;-75
2023/10/25 04:44:59;;;;;;;18.02;9.63;;;;;;;8.18;100.00;97665.09;5002034;28;20037;-75
2023/10/25 04:47:24;;;;;;;22.50;10.32;;;;;;;8.12;100.00;97651.44;4998812;28;20030;-75
2023/10/25 04:49:49;;;;;;;22.05;10.18;;;;;;;8.17;100.00;97645.38;5005337;28;20319;-78
2023/10/25 04:55:46;;;;;;;18.50;9.40;;;;;;;8.22;100.00;97659.03;5000720;28;20044;-76
2023/10/25 04:58:12;;;;;;;20.38;9.70;;;;;;;8.19;100.00;97659.47;5006480;28;20029;-76
2023/10/25 05:00:37;;;;;;;20.58;9.63;;;;;;;8.02;100.00;97636.78;5007993;28;20037;-75
2023/10/25 05:03:05;;;;;;;18.45;9.82;;;;;;;8.09;100.00;97638.38;5025408;28;20200;-75
2023/10/25 05:05:32;;;;;;;16.90;8.82;;;;;;;7.97;100.00;97633.91;5006017;28;20030;-76
2023/10/25 05:07:58;;;;;;;16.45;8.63;;;;;;;7.84;100.00;97632.09;5003147;28;20030;-76
2023/10/25 05:10:24;;;;;;;15.63;8.57;;;;;;;7.76;100.00;97624.28;5002813;28;20045;-77
2023/10/25 05:12:49;;;;;;;17.60;8.30;;;;;;;7.71;100.00;97642.94;4999643;28;20026;-78
2023/10/25 05:15:17;;;;;;;12.88;7.57;;;;;;;7.74;100.00;97637.13;4997999;28;20026;-78
2023/10/25 05:17:44;;;;;;;14.98;8.85;;;;;;;7.78;100.00;97639.19;4995009;28;20326;-75
2023/10/25 05:20:10;;;;;;;15.65;8.52;;;;;;;7.74;100.00;97621.78;5005336;28;20045;-74
2023/10/25 05:22:38;;;;;;;16.38;7.40;;;;;;;7.84;100.00;97635.63;5004938;28;20029;-78
2023/10/25 05:25:05;;;;;;;16.88;9.18;;;;;;;7.97;100.00;97634.72;5002594;28;20376;-76
2023/10/25 05:27:31;;;;;;;17.02;7.82;;;;;;;7.93;100.00;97630.81;5003272;28;20050;-75
2023/10/25 05:29:59;;;;;;;15.32;8.25;;;;;;;7.93;100.00;97627.28;5003203;28;20090;-79
2023/10/25 05:32:26;;;;;;;18.95;8.45;;;;;;;7.81;100.00;97613.69;5006159;28;20030;-76
2023/10/25 05:34:52;;;;;;;15.63;8.30;;;;;;;7.86;100.00;97611.19;5003407;28;20201;-78
2023/10/25 05:37:17;;;;;;;14.55;7.80;;;;;;;7.87;100.00;97618.22;5002625;28;20022;-80
2023/10/25 05:39:43;;;;;;;10.48;6.55;;;;;;;7.81;100.00;97598.34;5004891;28;20114;-77
2023/10/25 05:42:11;;;;;;;14.82;6.88;;;;;;;7.75;100.00;97593.81;5002338;28;20090;-77
2023/10/25 05:44:37;;;;;;;9.30;6.50;;;;;;;7.97;100.00;97612.38;4994321;28;20027;-76
2023/10/25 05:47:03;;;;;;;11.70;6.70;;;;;;;7.92;100.00;97617.56;5001475;28;20094;-73
2023/10/25 05:49:28;;;;;;;10.23;6.03;;;;;;;7.72;100.00;97601.50;5001511;28;20054;-76
2023/10/25 05:51:54;;;;;;;9.25;5.53;;;;;;;7.61;100.00;97600.31;5010310;28;20026;-72
2023/10/25 05:54:19;;;;;;;8.65;5.40;;;;;;;7.63;100.00;97617.91;5002544;28;20122;-71
2023/10/25 05:56:45;;;;;;;11.38;6.18;;;;;;;7.84;100.00;97614.06;5002714;28;20093;-71
2023/10/25 05:59:10;;;;;;;12.43;5.32;;;;;;;7.93;100.00;97606.56;4999125;28;20331;-71
2023/10/25 06:01:47;;;;;;;9.05;5.20;;;;;;;8.00;100.00;97598.47;4997463;28;20294;-71
2023/10/25 06:04:13;;;;;;;10.90;6.32;;;;;;;8.01;100.00;97590.16;4993310;28;20049;-72
2023/10/25 06:06:41;;;;;;;10.50;5.38;;;;;;;8.03;100.00;97590.75;4998217;28;20022;-72
2023/10/25 06:09:08;;;;;;;10.68;5.05;;;;;;;8.07;100.00;97581.22;5000659;28;20039;-71
2023/10/25 06:11:33;;;;;;;9.00;5.38;;;;;;;8.13;100.00;97585.72;4998906;28;20026;-77
2023/10/25 06:13:59;;;;;;;8.73;5.53;;;;;;;8.24;100.00;97588.75;4999326;28;20026;-78
2023/10/25 06:16:24;;;;;;;9.00;5.53;;;;;;;8.34;100.00;97589.09;5001802;28;20030;-76
2023/10/25 06:18:49;;;;;;;9.35;5.40;;;;;;;8.37;100.00;97596.75;5001153;28;20375;-74
2023/10/25 06:21:15;;;;;;;10.68;5.20;;;;;;;8.16;100.00;97571.00;4991484;28;20034;-75
2023/10/25 06:23:40;;;;;;;11.40;6.05;;;;;;;8.32;100.00;97593.88;4997323;28;20076;-76
2023/10/25 06:26:05;;;;;;;7.70;5.07;;;;;;;8.30;100.00;97590.56;5006318;28;20109;-74
2023/10/25 06:28:32;;;;;;;8.95;5.60;;;;;;;8.31;100.00;97586.84;5005458;28;20176;-75
2023/10/25 06:30:58;;;;;;;7.75;5.15;;;;;;;8.37;100.00;97582.47;5001569;28;20029;-75
2023/10/25 06:33:24;;;;;;;8.27;5.32;;;;;;;8.30;100.00;97571.72;4999196;28;20022;-76
2023/10/25 06:35:50;;;;;;;6.68;4.18;;;;;;;8.58;100.00;97583.97;5004052;28;20072;-78
2023/10/25 06:38:16;;;;;;;6.57;4.35;;;;;;;8.66;100.00;97572.91;5019713;28;20227;-77
2023/10/25 06:40:42;;;;;;;6.18;4.22;;;;;;;8.71;100.00;97565.81;5003192;28;20022;-76
2023/10/25 06:43:07;;;;;;;6.80;4.30;;;;;;;8.81;100.00;97559.09;5002666;28;20056;-78
2023/10/25 06:45:33;;;;;;;6.50;4.30;;;;;;;9.64;100.00;97555.81;5005531;28;20201;-77
2023/10/25 06:48:00;;;;;;;5.65;3.67;;;;;;;11.79;100.00;97561.72;5001913;28;20041;-74
2023/10/25 06:50:26;;;;;;;4.13;2.40;;;;;;;12.88;100.00;97509.03;5001231;28;20042;-77
2023/10/25 06:52:52;;;;;;;3.38;2.13;;;;;;;13.80;100.00;97469.41;5003895;28;20033;-75
2023/10/25 06:55:18;;;;;;;2.63;1.60;;;;;;;13.07;100.00;97470.72;5004524;28;20034;-74
2023/10/25 06:57:44;;;;;;;2.35;1.52;;;;;;;12.12;100.00;97472.59;5005315;28;20048;-73
2023/10/25 07:00:09;;;;;;;3.10;1.80;;;;;;;12.55;100.00;97461.06;5002672;28;20026;-73
2023/10/25 07:02:52;;;;;;;3.40;1.55;;;;;;;15.78;100.00;97437.38;4998575;28;20026;-75
2023/10/25 07:05:23;;;;;;;2.28;1.48;;;;;;;17.04;100.00;97431.28;5005190;28;20029;-75
2023/10/25 07:07:52;;;;;;;1.98;1.48;;;;;;;16.47;100.00;97446.13;5003423;28;20030;-74
2023/10/25 07:10:18;;;;;;;2.47;1.65;;;;;;;16.60;100.00;97434.63;5000967;28;20022;-74
2023/10/25 07:12:44;;;;;;;3.88;1.40;;;;;;;15.87;100.00;97435.75;4999243;28;20030;-74
2023/10/25 07:15:11;;;;;;;6.20;1.50;;;;;;;14.89;100.00;97421.00;5005092;28;20339;-76
2023/10/25 07:17:37;;;;;;;3.03;1.17;;;;;;;16.99;100.00;97414.91;5007342;28;20081;-73
2023/10/25 07:20:07;;;;;;;2.38;0.80;;;;;;;18.12;100.00;97396.72;5003489;28;20022;-77
2023/10/25 07:22:32;;;;;;;;;;;;;;;20.17;100.00;97415.38;4990913;28;20023;-75
2023/10/25 07:24:57;;;;;;;0.90;0.73;;;;;;;19.31;100.00;97399.88;5000367;28;20249;-75
2023/10/25 07:27:23;;;;;;;3.10;0.93;;;;;;;21.13;100.00;97398.25;4997133;28;20029;-73
2023/10/25 07:29:49;;;;;;;4.80;1.00;;;;;;;19.34;100.00;97393.81;5004374;28;20197;-74
2023/10/25 07:32:14;;;;;;;2.45;0.82;;;;;;;17.78;100.00;97395.88;5003011;28;20118;-73
2023/10/25 07:34:40;;;;;;;4.05;0.93;;;;;;;17.71;100.00;97398.94;5001217;28;20048;-78
2023/10/25 07:37:05;;;;;;;1.58;1.08;;;;;;;18.76;100.00;97391.25;5009501;28;20042;-76
2023/10/25 07:39:31;;;;;;;1.15;0.75;;;;;;;20.96;100.00;97388.69;5015467;28;20029;-73
2023/10/25 07:41:56;;;;;;;1.15;0.73;;;;;;;21.12;100.00;97388.41;5017878;28;20033;-72
2023/10/25 07:44:21;;;;;;;1.65;1.00;;;;;;;21.28;97.53;97377.88;5014195;28;20053;-73
2023/10/25 07:46:47;;;;;;;3.50;1.15;;;;;;;21.79;88.12;97380.31;5010059;28;20053;-78
2023/10/25 07:49:12;;;;;;;1.38;0.88;;;;;;;22.15;80.09;97373.13;5016118;28;20030;-80
2023/10/25 07:51:37;;;;;;;1.05;0.77;;;;;;;20.73;87.74;97378.72;5025868;28;20027;-78
2023/10/25 07:54:03;;;;;;;5.07;1.00;;;;;;;18.10;100.00;97381.69;5009860;28;20022;-78
2023/10/25 07:56:28;;;;;;;1.50;0.90;;;;;;;17.25;100.00;97372.69;5015218;28;20023;-78
2023/10/25 07:58:54;;;;;;;2.03;1.05;;;;;;;15.78;100.00;97388.31;5012306;28;20045;-77
2023/10/25 08:01:19;;;;;;;1.92;1.23;;;;;;;14.96;100.00;97379.91;5012872;28;20026;-78
2023/10/25 08:03:44;;;;;;;1.58;1.40;;;;;;;13.65;100.00;97387.75;5008897;28;20030;-79
2023/10/25 08:06:10;;;;;;;2.25;1.58;;;;;;;12.72;100.00;97382.34;5005926;28;20049;-79
2023/10/25 08:08:35;;;;;;;6.05;1.65;;;;;;;12.05;100.00;97392.25;5010582;28;20018;-76
2023/10/25 08:11:05;;;;;;;3.05;1.65;;;;;;;13.21;100.00;97379.66;5015975;28;20034;-78
2023/10/25 08:13:33;;;;;;;2.35;1.70;;;;;;;17.01;100.00;97356.16;5016412;28;20014;-79
2023/10/25 08:16:00;;;;;;;2.00;1.27;;;;;;;19.13;100.00;97348.59;5030178;28;20017;-77
2023/10/25 08:18:31;;;;;;;1.30;0.95;;;;;;;20.46;100.00;97347.31;5013539;28;20037;-76
2023/10/25 08:20:57;;;;;;;2.95;1.30;;;;;;;21.07;100.00;97356.31;5013584;28;20038;-79
2023/10/25 08:23:29;;;;;;;1.83;1.15;;;;;;;21.30;96.92;97346.19;5014346;28;20045;-77
2023/10/25 08:26:39;;;;;;;1.55;0.90;;;;;;;19.44;100.00;97352.53;5018434;28;20031;-77
2023/10/25 08:29:26;;;;;;;1.38;1.05;;;;;;;22.07;94.42;97350.72;5017905;28;20046;-79
2023/10/25 08:32:12;;;;;;;1.35;1.00;;;;;;;23.45;82.70;97359.09;5017163;28;20030;-83
2023/10/25 08:34:37;;;;;;;2.15;1.30;;;;;;;24.75;73.81;97339.66;5003518;28;20053;-77
2023/10/25 08:37:02;;;;;;;2.75;1.00;;;;;;;23.72;73.37;97349.75;5024051;28;20037;-78
2023/10/25 08:39:28;;;;;;;4.60;1.48;;;;;;;20.95;89.15;97342.25;5001284;28;20390;-77
2023/10/25 08:41:54;;;;;;;1.98;0.77;;;;;;;18.13;100.00;97349.13;5005572;28;20023;-78
2023/10/25 08:44:20;;;;;;;2.38;1.40;;;;;;;17.01;100.00;97339.75;4988763;28;20030;-75
2023/10/25 08:46:49;;;;;;;2.72;1.30;;;;;;;16.62;100.00;97347.81;4994701;28;20385;-72
2023/10/25 08:49:14;;;;;;;3.95;1.05;;;;;;;16.19;100.00;97339.16;5002280;28;20037;-79
2023/10/25 08:51:43;;;;;;;1.15;1.02;;;;;;;15.86;100.00;97335.13;5002777;28;20031;-74
2023/10/25 08:54:40;;;;;;;1.70;1.00;;;;;;;15.55;100.00;97344.06;5001400;28;20041;-78
2023/10/25 08:57:07;;;;;;;2.53;1.20;;;;;;;14.81;100.00;97334.38;4995113;28;20050;-77
2023/10/25 08:59:51;;;;;;;4.68;1.20;;;;;;;14.60;100.00;97340.81;5004975;28;20026;-77
2023/10/25 09:02:17;;;;;;;2.22;1.40;;;;;;;14.63;100.00;97332.13;5002112;28;20081;-77
2023/10/25 09:04:58;;;;;;;2.15;1.40;;;;;;;14.80;100.00;97318.28;5002126;28;20324;-79
2023/10/25 09:07:28;;;;;;;1.90;1.30;;;;;;;14.76;100.00;97322.66;4998036;28;20225;-79
2023/10/25 09:09:54;;;;;;;4.00;1.38;;;;;;;14.50;100.00;97319.78;5003540;28;20256;-75
2023/10/25 09:12:20;;;;;;;2.75;1.50;;;;;;;14.16;100.00;97320.13;5002307;28;20129;-76
2023/10/25 09:14:47;;;;;;;3.67;1.55;;;;;;;13.77;100.00;97323.13;4992224;28;20026;-76
2023/10/25 09:17:12;;;;;;;2.35;1.80;;;;;;;13.54;100.00;97318.06;5000477;28;20040;-77
2023/10/25 09:19:45;;;;;;;4.18;1.45;;;;;;;13.31;100.00;97328.19;5019752;28;20022;-78
2023/10/25 09:22:30;;;;;;;2.95;1.48;;;;;;;13.32;100.00;97313.53;5022338;28;20041;-78
2023/10/25 09:24:58;;;;;;;4.72;1.90;;;;;;;13.24;100.00;97324.81;5006754;28;20032;-75
2023/10/25 09:27:25;;;;;;;1.75;1.42;;;;;;;13.13;100.00;97307.63;4994266;28;20062;-75
2023/10/25 09:29:51;;;;;;;1.85;1.40;;;;;;;12.97;100.00;97318.56;5002187;28;20026;-76
2023/10/25 09:32:18;;;;;;;5.57;1.80;;;;;;;12.79;100.00;97307.00;5003211;28;20050;-77
2023/10/25 09:34:45;;;;;;;2.97;1.70;;;;;;;12.77;100.00;97321.88;5001382;28;20032;-76
2023/10/25 09:37:11;;;;;;;3.05;1.67;;;;;;;12.68;100.00;97306.06;5002477;28;20030;-76
2023/10/25 09:39:37;;;;;;;1.88;1.60;;;;;;;12.77;100.00;97319.97;5016852;28;20105;-77
2023/10/25 09:42:10;;;;;;;3.58;1.80;;;;;;;12.69;100.00;97317.72;5017809;28;20250;-76
2023/10/25 09:44:47;;;;;;;4.07;2.10;;;;;;;12.61;100.00;97304.59;5018338;28;20096;-76
2023/10/25 09:47:15;;;;;;;3.15;2.20;;;;;;;12.34;100.00;97313.50;5017069;28;20034;-73
2023/10/25 09:49:47;;;;;;;9.85;2.22;;;;;;;12.19;100.00;97314.09;5000768;28;20022;-73
2023/10/25 09:52:19;;;;;;;2.60;2.05;;;;;;;12.01;100.00;97336.88;5004193;28;20106;-73
2023/10/25 09:55:03;;;;;;;3.03;1.98;;;;;;;12.01;100.00;97336.06;4999409;28;20515;-73
2023/10/25 09:57:30;;;;;;;4.70;2.25;;;;;;;11.87;100.00;97326.63;4999478;28;20305;-72
2023/10/25 09:59:56;;;;;;;8.95;2.47;;;;;;;11.79;100.00;97328.69;5004967;28;20452;-73
2023/10/25 10:02:50;;;;;;;4.15;2.42;;;;;;;11.72;100.00;97324.50;5003017;28;20018;-72
2023/10/25 10:05:25;;;;;;;5.38;2.40;;;;;;;11.70;100.00;97323.91;5001761;28;20026;-72
2023/10/25 10:08:11;;;;;;;3.08;2.45;;;;;;;11.76;100.00;97314.78;5003708;28;20022;-71
2023/10/25 10:10:39;;;;;;;7.30;3.67;;;;;;;11.78;100.00;97309.94;5003369;28;20137;-71
2023/10/25 10:13:19;;;;;;;5.20;2.63;;;;;;;11.69;100.00;97314.97;4998284;28;20026;-71
2023/10/25 10:16:15;;;;;;;3.72;2.22;;;;;;;11.75;100.00;97307.75;5000052;28;20402;-72
2023/10/25 10:18:51;;;;;;;2.85;2.00;;;;;;;11.82;100.00;97294.84;5011672;28;20113;-71
2023/10/25 10:21:17;;;;;;;2.65;1.75;;;;;;;11.88;100.00;97293.88;5007611;28;20026;-71
2023/10/25 10:23:51;;;;;;;2.40;1.80;;;;;;;11.89;100.00;97291.97;5006988;28;20033;-71
2023/10/25 10:26:44;;;;;;;3.88;1.63;;;;;;;12.05;100.00;97283.00;5005269;28;20095;-73
2023/10/25 10:29:31;;;;;;;3.53;1.90;;;;;;;12.09;100.00;97280.63;5004807;28;20034;-72
2023/10/25 10:32:01;;;;;;;3.55;2.28;;;;;;;12.05;100.00;97264.00;5009498;28;20034;-72
2023/10/25 10:34:56;;;;;;;3.22;2.00;;;;;;;12.07;100.00;97254.56;5003130;28;20026;-72
2023/10/25 10:37:29;;;;;;;3.10;2.10;;;;;;;12.05;100.00;97251.31;5003556;28;20228;-72
2023/10/25 10:39:57;;;;;;;2.33;1.65;;;;;;;12.05;100.00;97245.88;5008497;28;20315;-72
2023/10/25 10:42:29;;;;;;;3.23;1.97;;;;;;;12.03;100.00;97247.19;4990768;28;20034;-72
2023/10/25 10:44:58;;;;;;;3.42;1.92;;;;;;;11.81;100.00;97242.53;4993153;28;20125;-72
2023/10/25 10:47:53;;;;;;;2.55;1.58;;;;;;;11.75;100.00;97231.88;5002853;28;20028;-72
2023/10/25 10:50:23;;;;;;;3.08;1.58;;;;;;;11.68;100.00;97212.25;4995645;28;20101;-72
2023/10/25 10:52:50;;;;;;;3.50;2.28;;;;;;;11.70;100.00;97212.84;5004640;28;20018;-72
2023/10/25 10:55:19;;;;;;;4.03;2.42;;;;;;;11.66;100.00;97204.41;4996901;28;20034;-75
2023/10/25 10:57:44;;;;;;;5.40;2.43;;;;;;;11.65;100.00;97208.16;5012081;28;20026;-75
2023/10/25 11:00:13;;;;;;;3.17;2.10;;;;;;;11.73;100.00;97199.59;5007445;28;20275;-73
2023/10/25 11:02:40;;;;;;;2.17;1.30;;;;;;;11.70;100.00;97178.44;5006202;28;20485;-76
2023/10/25 11:05:06;;;;;;;5.63;2.53;;;;;;;11.71;100.00;97188.22;5004462;28;20477;-76
2023/10/25 11:07:32;;;;;;;4.18;2.15;;;;;;;11.75;100.00;97197.47;5023553;28;20362;-79
2023/10/25 11:09:57;;;;;;;3.40;2.30;;;;;;;11.67;100.00;97168.09;5006398;28;20034;-78
2023/10/25 11:12:24;;;;;;;4.80;2.53;;;;;;;11.81;100.00;97179.38;5000603;28;20088;-78
2023/10/25 11:14:49;;;;;;;3.78;2.35;;;;;;;11.82;100.00;97160.19;5004919;28;20018;-77
2023/10/25 11:17:15;;;;;;;3.42;2.10;;;;;;;11.87;100.00;97147.78;5005171;28;20045;-76
2023/10/25 11:19:46;;;;;;;2.30;1.80;;;;;;;11.92;100.00;97143.28;4988760;28;20278;-77
2023/10/25 11:22:11;;;;;;;2.78;1.67;;;;;;;12.06;100.00;97143.69;4984917;28;20054;-76
2023/10/25 11:24:37;;;;;;;2.83;1.98;;;;;;;12.03;100.00;97117.09;4998420;28;20223;-77
2023/10/25 11:27:03;;;;;;;2.65;1.55;;;;;;;12.09;100.00;97107.94;5016227;28;20105;-78
2023/10/25 11:29:31;;;;;;;2.55;1.58;;;;;;;12.13;100.00;97108.25;5005594;28;20026;-77
2023/10/25 11:32:00;;;;;;;2.58;1.50;;;;;;;12.17;100.00;97088.50;4998100;28;20046;-73